Archival Weather

Dewar Lakes

Dewar Lakes, Canada (CWUW)

Report from: Friday, May 26, 2023 10:00 PM EDT
Current time: Monday, July 22, 2024 6:42 AM EDT

Current weather – Weather history – Daily summaries
Weather forecast

Present weatherSM
Temperature-12.0°C (10.4°F)
Wind chill-23.1°C (-9.5°F)
Dew point-13.0°C (8.6°F)
Winds 20 kts (10.3 m/s, 23 mph) West (270°)
Visibility0 ft. (0 m)
Altimeter29.79 in.Hg (1009 mB)
Relative humidity92 %
Density altitude-3,199 ft. (-975 m)
Remarks Fully automated report
Flight conditions Low Instrument Meteorological Conditions
Raw dataCWUW 270200Z AUTO 27020KT ////SM ////// M12/M13 A2979
An error has occurred. This application may no longer respond until reloaded. Reload 🗙